sensor_id;sensor_type;location;lat;lon;timestamp;temperature;humidity
6752;DHT22;3413;47.680;9.166;2023-08-31T00:03:21;19.50;82.50
6752;DHT22;3413;47.680;9.166;2023-08-31T00:08:23;19.50;82.50
6752;DHT22;3413;47.680;9.166;2023-08-31T00:13:26;19.50;82.60
6752;DHT22;3413;47.680;9.166;2023-08-31T00:18:29;19.50;82.50
6752;DHT22;3413;47.680;9.166;2023-08-31T00:23:31;19.50;83.10
6752;DHT22;3413;47.680;9.166;2023-08-31T00:28:33;19.50;82.50
6752;DHT22;3413;47.680;9.166;2023-08-31T00:33:37;19.50;82.50
6752;DHT22;3413;47.680;9.166;2023-08-31T00:38:39;19.50;82.60
6752;DHT22;3413;47.680;9.166;2023-08-31T00:43:42;19.60;82.60
6752;DHT22;3413;47.680;9.166;2023-08-31T00:48:44;19.60;82.50
6752;DHT22;3413;47.680;9.166;2023-08-31T00:53:46;19.70;82.50
6752;DHT22;3413;47.680;9.166;2023-08-31T00:58:49;19.70;82.60
6752;DHT22;3413;47.680;9.166;2023-08-31T01:04:25;19.80;83.10
6752;DHT22;3413;47.680;9.166;2023-08-31T01:14:47;19.70;82.90
6752;DHT22;3413;47.680;9.166;2023-08-31T01:19:51;19.70;82.90
6752;DHT22;3413;47.680;9.166;2023-08-31T01:24:54;19.70;83.00
6752;DHT22;3413;47.680;9.166;2023-08-31T01:29:56;19.70;83.00
6752;DHT22;3413;47.680;9.166;2023-08-31T01:34:58;19.60;83.00
6752;DHT22;3413;47.680;9.166;2023-08-31T01:40:08;19.70;83.10
6752;DHT22;3413;47.680;9.166;2023-08-31T01:45:17;19.70;83.10
6752;DHT22;3413;47.680;9.166;2023-08-31T01:50:22;19.80;83.20
6752;DHT22;3413;47.680;9.166;2023-08-31T01:55:25;19.70;83.10
6752;DHT22;3413;47.680;9.166;2023-08-31T02:00:27;19.70;83.20
6752;DHT22;3413;47.680;9.166;2023-08-31T02:05:30;19.80;83.30
6752;DHT22;3413;47.680;9.166;2023-08-31T02:10:32;19.80;83.30
6752;DHT22;3413;47.680;9.166;2023-08-31T02:15:38;19.80;83.30
6752;DHT22;3413;47.680;9.166;2023-08-31T02:20:40;19.90;83.40
6752;DHT22;3413;47.680;9.166;2023-08-31T02:25:42;19.90;83.40
6752;DHT22;3413;47.680;9.166;2023-08-31T02:30:45;19.90;83.40
6752;DHT22;3413;47.680;9.166;2023-08-31T02:35:48;19.90;83.50
6752;DHT22;3413;47.680;9.166;2023-08-31T02:40:49;20.00;83.60
6752;DHT22;3413;47.680;9.166;2023-08-31T02:46:01;20.00;83.60
6752;DHT22;3413;47.680;9.166;2023-08-31T02:51:04;20.00;83.60
6752;DHT22;3413;47.680;9.166;2023-08-31T02:56:06;20.10;83.70
6752;DHT22;3413;47.680;9.166;2023-08-31T03:01:12;20.10;83.70
6752;DHT22;3413;47.680;9.166;2023-08-31T03:06:17;20.10;83.70
6752;DHT22;3413;47.680;9.166;2023-08-31T03:11:19;20.10;83.70
6752;DHT22;3413;47.680;9.166;2023-08-31T03:16:21;20.10;83.70
6752;DHT22;3413;47.680;9.166;2023-08-31T03:21:23;20.10;83.80
6752;DHT22;3413;47.680;9.166;2023-08-31T03:26:25;20.00;83.70
6752;DHT22;3413;47.680;9.166;2023-08-31T03:31:27;20.00;83.80
6752;DHT22;3413;47.680;9.166;2023-08-31T03:36:31;20.00;83.80
6752;DHT22;3413;47.680;9.166;2023-08-31T03:41:33;20.10;83.90
6752;DHT22;3413;47.680;9.166;2023-08-31T03:46:37;20.10;84.00
6752;DHT22;3413;47.680;9.166;2023-08-31T03:51:39;19.90;83.90
6752;DHT22;3413;47.680;9.166;2023-08-31T03:56:41;19.90;84.60
6752;DHT22;3413;47.680;9.166;2023-08-31T04:01:43;19.80;83.90
6752;DHT22;3413;47.680;9.166;2023-08-31T04:06:46;19.80;83.90
6752;DHT22;3413;47.680;9.166;2023-08-31T04:11:49;19.70;83.90
6752;DHT22;3413;47.680;9.166;2023-08-31T04:16:50;19.70;83.90
6752;DHT22;3413;47.680;9.166;2023-08-31T04:21:52;19.60;83.90
6752;DHT22;3413;47.680;9.166;2023-08-31T04:26:54;19.30;83.80
6752;DHT22;3413;47.680;9.166;2023-08-31T04:31:57;19.30;83.90
6752;DHT22;3413;47.680;9.166;2023-08-31T04:37:00;19.30;83.80
6752;DHT22;3413;47.680;9.166;2023-08-31T04:42:02;19.30;83.80
6752;DHT22;3413;47.680;9.166;2023-08-31T04:47:04;19.00;83.50
6752;DHT22;3413;47.680;9.166;2023-08-31T04:52:06;18.80;83.40
6752;DHT22;3413;47.680;9.166;2023-08-31T04:57:08;18.80;83.40
6752;DHT22;3413;47.680;9.166;2023-08-31T05:02:12;18.70;84.30
6752;DHT22;3413;47.680;9.166;2023-08-31T05:07:14;18.80;83.60
6752;DHT22;3413;47.680;9.166;2023-08-31T05:12:16;18.80;84.30
6752;DHT22;3413;47.680;9.166;2023-08-31T05:17:19;18.80;83.60
6752;DHT22;3413;47.680;9.166;2023-08-31T05:22:21;18.80;83.80
6752;DHT22;3413;47.680;9.166;2023-08-31T05:27:23;18.70;83.50
6752;DHT22;3413;47.680;9.166;2023-08-31T05:32:28;18.60;83.50
6752;DHT22;3413;47.680;9.166;2023-08-31T05:37:33;18.60;83.60
6752;DHT22;3413;47.680;9.166;2023-08-31T05:42:37;18.60;83.60
6752;DHT22;3413;47.680;9.166;2023-08-31T05:47:40;18.50;83.60
6752;DHT22;3413;47.680;9.166;2023-08-31T05:52:42;18.40;83.60
6752;DHT22;3413;47.680;9.166;2023-08-31T05:57:45;18.50;83.50
6752;DHT22;3413;47.680;9.166;2023-08-31T06:02:47;18.40;83.20
6752;DHT22;3413;47.680;9.166;2023-08-31T06:07:49;18.20;83.40
6752;DHT22;3413;47.680;9.166;2023-08-31T06:12:51;18.20;83.80
6752;DHT22;3413;47.680;9.166;2023-08-31T06:17:56;18.20;83.80
6752;DHT22;3413;47.680;9.166;2023-08-31T06:23:00;18.30;83.70
6752;DHT22;3413;47.680;9.166;2023-08-31T06:28:02;18.30;83.60
6752;DHT22;3413;47.680;9.166;2023-08-31T06:33:04;18.30;83.90
6752;DHT22;3413;47.680;9.166;2023-08-31T06:38:07;18.30;83.90
6752;DHT22;3413;47.680;9.166;2023-08-31T06:43:09;18.30;84.10
6752;DHT22;3413;47.680;9.166;2023-08-31T06:48:11;18.50;83.90
6752;DHT22;3413;47.680;9.166;2023-08-31T06:53:13;18.50;84.00
6752;DHT22;3413;47.680;9.166;2023-08-31T06:58:15;18.50;83.90
6752;DHT22;3413;47.680;9.166;2023-08-31T07:03:18;18.50;84.20
6752;DHT22;3413;47.680;9.166;2023-08-31T07:08:20;18.50;85.10
6752;DHT22;3413;47.680;9.166;2023-08-31T07:13:22;18.50;84.50
6752;DHT22;3413;47.680;9.166;2023-08-31T07:18:24;18.60;84.80
6752;DHT22;3413;47.680;9.166;2023-08-31T07:23:26;18.60;84.70
6752;DHT22;3413;47.680;9.166;2023-08-31T07:28:28;18.70;84.80
6752;DHT22;3413;47.680;9.166;2023-08-31T07:33:33;18.80;84.90
6752;DHT22;3413;47.680;9.166;2023-08-31T07:38:37;19.00;85.10
6752;DHT22;3413;47.680;9.166;2023-08-31T07:43:39;19.20;85.40
6752;DHT22;3413;47.680;9.166;2023-08-31T07:48:59;19.30;85.10
6752;DHT22;3413;47.680;9.166;2023-08-31T07:54:01;19.30;85.00
6752;DHT22;3413;47.680;9.166;2023-08-31T07:59:05;19.30;84.90
6752;DHT22;3413;47.680;9.166;2023-08-31T08:04:07;19.40;85.20
6752;DHT22;3413;47.680;9.166;2023-08-31T08:09:09;19.60;85.10
6752;DHT22;3413;47.680;9.166;2023-08-31T08:14:10;19.70;85.10
6752;DHT22;3413;47.680;9.166;2023-08-31T08:19:13;19.90;85.20
6752;DHT22;3413;47.680;9.166;2023-08-31T08:24:15;20.10;85.30
6752;DHT22;3413;47.680;9.166;2023-08-31T08:29:16;20.20;85.50
6752;DHT22;3413;47.680;9.166;2023-08-31T08:34:18;20.40;85.90
6752;DHT22;3413;47.680;9.166;2023-08-31T08:39:20;20.60;86.00
6752;DHT22;3413;47.680;9.166;2023-08-31T08:44:25;20.80;85.70
6752;DHT22;3413;47.680;9.166;2023-08-31T08:49:33;20.90;85.30
6752;DHT22;3413;47.680;9.166;2023-08-31T08:54:37;20.80;85.30
6752;DHT22;3413;47.680;9.166;2023-08-31T08:59:41;20.80;85.40
6752;DHT22;3413;47.680;9.166;2023-08-31T09:04:43;20.90;85.20
6752;DHT22;3413;47.680;9.166;2023-08-31T09:09:49;20.80;84.60
6752;DHT22;3413;47.680;9.166;2023-08-31T09:14:59;20.70;84.70
6752;DHT22;3413;47.680;9.166;2023-08-31T09:20:02;20.60;84.50
6752;DHT22;3413;47.680;9.166;2023-08-31T09:25:08;20.60;84.70
6752;DHT22;3413;47.680;9.166;2023-08-31T09:30:11;20.80;85.00
6752;DHT22;3413;47.680;9.166;2023-08-31T09:35:13;21.00;85.00
6752;DHT22;3413;47.680;9.166;2023-08-31T09:40:23;21.10;85.00
6752;DHT22;3413;47.680;9.166;2023-08-31T09:45:32;21.30;85.10
6752;DHT22;3413;47.680;9.166;2023-08-31T09:50:38;21.60;85.00
6752;DHT22;3413;47.680;9.166;2023-08-31T09:55:40;21.60;84.80
6752;DHT22;3413;47.680;9.166;2023-08-31T10:00:43;21.70;85.00
6752;DHT22;3413;47.680;9.166;2023-08-31T10:05:48;21.80;84.70
6752;DHT22;3413;47.680;9.166;2023-08-31T10:10:50;21.80;84.60
6752;DHT22;3413;47.680;9.166;2023-08-31T10:15:53;21.90;84.40
6752;DHT22;3413;47.680;9.166;2023-08-31T10:20:55;21.90;84.20
6752;DHT22;3413;47.680;9.166;2023-08-31T10:31:16;21.90;83.60
6752;DHT22;3413;47.680;9.166;2023-08-31T10:36:20;21.90;83.60
6752;DHT22;3413;47.680;9.166;2023-08-31T10:41:22;21.90;83.60
6752;DHT22;3413;47.680;9.166;2023-08-31T10:46:29;21.90;83.30
6752;DHT22;3413;47.680;9.166;2023-08-31T10:51:31;22.00;83.40
6752;DHT22;3413;47.680;9.166;2023-08-31T10:56:36;22.10;83.20
6752;DHT22;3413;47.680;9.166;2023-08-31T11:01:57;22.10;83.00
6752;DHT22;3413;47.680;9.166;2023-08-31T11:07:19;22.10;82.90
6752;DHT22;3413;47.680;9.166;2023-08-31T11:12:22;22.10;82.90
6752;DHT22;3413;47.680;9.166;2023-08-31T11:17:25;22.30;83.10
6752;DHT22;3413;47.680;9.166;2023-08-31T11:22:31;22.40;83.20
6752;DHT22;3413;47.680;9.166;2023-08-31T11:27:33;22.40;83.20
6752;DHT22;3413;47.680;9.166;2023-08-31T11:32:35;22.60;83.30
6752;DHT22;3413;47.680;9.166;2023-08-31T11:37:37;22.70;83.20
6752;DHT22;3413;47.680;9.166;2023-08-31T11:42:40;22.70;83.10
6752;DHT22;3413;47.680;9.166;2023-08-31T11:47:43;22.60;83.00
6752;DHT22;3413;47.680;9.166;2023-08-31T11:52:46;22.70;83.30
6752;DHT22;3413;47.680;9.166;2023-08-31T11:57:52;22.80;83.10
6752;DHT22;3413;47.680;9.166;2023-08-31T12:03:00;22.90;82.60
6752;DHT22;3413;47.680;9.166;2023-08-31T12:08:02;23.00;82.00
6752;DHT22;3413;47.680;9.166;2023-08-31T12:13:08;22.90;81.90
6752;DHT22;3413;47.680;9.166;2023-08-31T12:18:13;22.90;82.10
6752;DHT22;3413;47.680;9.166;2023-08-31T12:23:15;22.80;81.90
6752;DHT22;3413;47.680;9.166;2023-08-31T12:28:18;22.80;81.90
6752;DHT22;3413;47.680;9.166;2023-08-31T12:33:20;22.70;82.30
6752;DHT22;3413;47.680;9.166;2023-08-31T12:38:23;22.60;81.50
6752;DHT22;3413;47.680;9.166;2023-08-31T12:43:25;22.60;81.70
6752;DHT22;3413;47.680;9.166;2023-08-31T12:48:27;22.60;81.70
6752;DHT22;3413;47.680;9.166;2023-08-31T12:53:29;22.90;81.70
6752;DHT22;3413;47.680;9.166;2023-08-31T12:58:32;22.80;81.50
6752;DHT22;3413;47.680;9.166;2023-08-31T13:03:33;23.00;81.30
6752;DHT22;3413;47.680;9.166;2023-08-31T13:08:35;23.00;81.20
6752;DHT22;3413;47.680;9.166;2023-08-31T13:13:38;22.90;81.10
6752;DHT22;3413;47.680;9.166;2023-08-31T13:18:40;22.90;81.20
6752;DHT22;3413;47.680;9.166;2023-08-31T13:23:42;23.10;81.40
6752;DHT22;3413;47.680;9.166;2023-08-31T13:28:46;23.10;82.10
6752;DHT22;3413;47.680;9.166;2023-08-31T13:33:48;23.20;81.40
6752;DHT22;3413;47.680;9.166;2023-08-31T13:38:50;23.30;81.30
6752;DHT22;3413;47.680;9.166;2023-08-31T13:43:52;23.40;81.40
6752;DHT22;3413;47.680;9.166;2023-08-31T13:48:54;23.30;81.30
6752;DHT22;3413;47.680;9.166;2023-08-31T13:53:56;23.30;81.30
6752;DHT22;3413;47.680;9.166;2023-08-31T13:58:58;23.20;81.20
6752;DHT22;3413;47.680;9.166;2023-08-31T14:04:01;23.30;81.10
6752;DHT22;3413;47.680;9.166;2023-08-31T14:09:05;23.40;81.30
6752;DHT22;3413;47.680;9.166;2023-08-31T14:14:07;23.40;81.00
6752;DHT22;3413;47.680;9.166;2023-08-31T14:19:13;23.30;81.10
6752;DHT22;3413;47.680;9.166;2023-08-31T14:24:14;23.30;80.70
6752;DHT22;3413;47.680;9.166;2023-08-31T14:29:16;23.20;80.50
6752;DHT22;3413;47.680;9.166;2023-08-31T14:34:18;23.30;80.70
6752;DHT22;3413;47.680;9.166;2023-08-31T14:39:20;23.20;80.40
6752;DHT22;3413;47.680;9.166;2023-08-31T14:44:22;23.30;80.60
6752;DHT22;3413;47.680;9.166;2023-08-31T14:49:24;23.30;80.50
6752;DHT22;3413;47.680;9.166;2023-08-31T14:54:26;23.30;80.50
6752;DHT22;3413;47.680;9.166;2023-08-31T14:59:28;23.30;80.70
6752;DHT22;3413;47.680;9.166;2023-08-31T15:04:31;23.30;80.40
6752;DHT22;3413;47.680;9.166;2023-08-31T15:09:33;23.20;80.40
6752;DHT22;3413;47.680;9.166;2023-08-31T15:14:35;23.20;80.20
6752;DHT22;3413;47.680;9.166;2023-08-31T15:19:39;23.20;80.30
6752;DHT22;3413;47.680;9.166;2023-08-31T15:24:41;23.00;80.30
6752;DHT22;3413;47.680;9.166;2023-08-31T15:29:44;23.00;80.10
6752;DHT22;3413;47.680;9.166;2023-08-31T15:34:46;23.00;79.90
6752;DHT22;3413;47.680;9.166;2023-08-31T15:39:51;22.90;79.80
6752;DHT22;3413;47.680;9.166;2023-08-31T15:44:54;22.90;79.70
6752;DHT22;3413;47.680;9.166;2023-08-31T15:49:57;22.90;79.80
6752;DHT22;3413;47.680;9.166;2023-08-31T15:55:02;22.90;79.70
6752;DHT22;3413;47.680;9.166;2023-08-31T16:00:06;23.00;79.60
6752;DHT22;3413;47.680;9.166;2023-08-31T16:05:08;22.90;79.40
6752;DHT22;3413;47.680;9.166;2023-08-31T16:10:10;22.80;79.30
6752;DHT22;3413;47.680;9.166;2023-08-31T16:15:12;22.70;79.30
6752;DHT22;3413;47.680;9.166;2023-08-31T16:20:14;22.70;79.40
6752;DHT22;3413;47.680;9.166;2023-08-31T16:25:16;22.70;79.20
6752;DHT22;3413;47.680;9.166;2023-08-31T16:30:19;22.70;79.30
6752;DHT22;3413;47.680;9.166;2023-08-31T16:35:21;22.70;79.40
6752;DHT22;3413;47.680;9.166;2023-08-31T16:40:24;22.70;79.30
6752;DHT22;3413;47.680;9.166;2023-08-31T16:45:26;22.70;79.30
6752;DHT22;3413;47.680;9.166;2023-08-31T16:50:34;22.60;79.20
6752;DHT22;3413;47.680;9.166;2023-08-31T16:55:37;22.60;79.20
6752;DHT22;3413;47.680;9.166;2023-08-31T17:00:45;22.60;79.30
6752;DHT22;3413;47.680;9.166;2023-08-31T17:05:54;22.50;79.20
6752;DHT22;3413;47.680;9.166;2023-08-31T17:10:56;22.50;79.30
6752;DHT22;3413;47.680;9.166;2023-08-31T17:15:58;22.50;79.40
6752;DHT22;3413;47.680;9.166;2023-08-31T17:20:59;22.40;79.40
6752;DHT22;3413;47.680;9.166;2023-08-31T17:26:02;22.50;79.40
6752;DHT22;3413;47.680;9.166;2023-08-31T17:31:04;22.60;79.40
6752;DHT22;3413;47.680;9.166;2023-08-31T17:36:07;22.40;79.40
6752;DHT22;3413;47.680;9.166;2023-08-31T17:41:09;22.20;79.60
6752;DHT22;3413;47.680;9.166;2023-08-31T17:46:11;22.10;79.60
6752;DHT22;3413;47.680;9.166;2023-08-31T17:51:13;22.10;79.80
6752;DHT22;3413;47.680;9.166;2023-08-31T17:56:15;22.00;79.70
6752;DHT22;3413;47.680;9.166;2023-08-31T18:01:17;22.00;79.80
6752;DHT22;3413;47.680;9.166;2023-08-31T18:06:19;22.00;80.00
6752;DHT22;3413;47.680;9.166;2023-08-31T18:11:21;22.00;80.00
6752;DHT22;3413;47.680;9.166;2023-08-31T18:16:23;22.00;80.00
6752;DHT22;3413;47.680;9.166;2023-08-31T18:21:26;22.00;80.10
6752;DHT22;3413;47.680;9.166;2023-08-31T18:26:28;22.20;80.10
6752;DHT22;3413;47.680;9.166;2023-08-31T18:31:30;22.20;80.30
6752;DHT22;3413;47.680;9.166;2023-08-31T18:36:32;22.20;80.30
6752;DHT22;3413;47.680;9.166;2023-08-31T18:41:37;22.30;80.60
6752;DHT22;3413;47.680;9.166;2023-08-31T18:46:42;22.30;80.30
6752;DHT22;3413;47.680;9.166;2023-08-31T18:51:44;22.40;80.50
6752;DHT22;3413;47.680;9.166;2023-08-31T18:56:47;22.40;80.50
6752;DHT22;3413;47.680;9.166;2023-08-31T19:01:49;22.50;81.30
6752;DHT22;3413;47.680;9.166;2023-08-31T19:06:52;22.50;80.70
6752;DHT22;3413;47.680;9.166;2023-08-31T19:11:54;22.50;80.60
6752;DHT22;3413;47.680;9.166;2023-08-31T19:16:56;22.50;80.60
6752;DHT22;3413;47.680;9.166;2023-08-31T19:21:58;22.50;80.70
6752;DHT22;3413;47.680;9.166;2023-08-31T19:27:01;22.40;80.70
6752;DHT22;3413;47.680;9.166;2023-08-31T19:32:04;22.40;80.80
6752;DHT22;3413;47.680;9.166;2023-08-31T19:37:06;22.30;80.80
6752;DHT22;3413;47.680;9.166;2023-08-31T19:42:08;22.30;80.90
6752;DHT22;3413;47.680;9.166;2023-08-31T19:47:10;22.20;80.80
6752;DHT22;3413;47.680;9.166;2023-08-31T19:52:16;22.10;80.80
6752;DHT22;3413;47.680;9.166;2023-08-31T19:57:18;22.10;81.00
6752;DHT22;3413;47.680;9.166;2023-08-31T20:02:20;21.90;80.90
6752;DHT22;3413;47.680;9.166;2023-08-31T20:07:22;21.80;81.60
6752;DHT22;3413;47.680;9.166;2023-08-31T20:12:26;21.70;81.00
6752;DHT22;3413;47.680;9.166;2023-08-31T20:17:28;21.70;81.00
6752;DHT22;3413;47.680;9.166;2023-08-31T20:22:30;21.70;81.00
6752;DHT22;3413;47.680;9.166;2023-08-31T20:27:37;21.70;81.10
6752;DHT22;3413;47.680;9.166;2023-08-31T20:32:40;21.60;81.10
6752;DHT22;3413;47.680;9.166;2023-08-31T20:37:42;21.60;81.20
6752;DHT22;3413;47.680;9.166;2023-08-31T20:42:44;21.50;81.10
6752;DHT22;3413;47.680;9.166;2023-08-31T20:47:47;21.50;81.30
6752;DHT22;3413;47.680;9.166;2023-08-31T20:52:49;21.40;81.90
6752;DHT22;3413;47.680;9.166;2023-08-31T20:57:53;21.40;81.40
6752;DHT22;3413;47.680;9.166;2023-08-31T21:02:56;21.30;81.30
6752;DHT22;3413;47.680;9.166;2023-08-31T21:07:58;21.30;81.40
6752;DHT22;3413;47.680;9.166;2023-08-31T21:13:00;21.30;81.40
6752;DHT22;3413;47.680;9.166;2023-08-31T21:18:03;21.40;81.50
6752;DHT22;3413;47.680;9.166;2023-08-31T21:23:07;21.40;81.50
6752;DHT22;3413;47.680;9.166;2023-08-31T21:28:13;21.40;81.60
6752;DHT22;3413;47.680;9.166;2023-08-31T21:33:15;21.50;81.80
6752;DHT22;3413;47.680;9.166;2023-08-31T21:38:18;21.50;81.70
6752;DHT22;3413;47.680;9.166;2023-08-31T21:43:20;21.50;81.80
6752;DHT22;3413;47.680;9.166;2023-08-31T21:48:22;21.40;81.70
6752;DHT22;3413;47.680;9.166;2023-08-31T21:53:25;21.30;81.80
6752;DHT22;3413;47.680;9.166;2023-08-31T21:58:27;21.30;81.90
6752;DHT22;3413;47.680;9.166;2023-08-31T22:03:30;21.30;82.00
6752;DHT22;3413;47.680;9.166;2023-08-31T22:08:32;21.40;82.00
6752;DHT22;3413;47.680;9.166;2023-08-31T22:13:35;21.40;82.10
6752;DHT22;3413;47.680;9.166;2023-08-31T22:18:37;21.40;82.10
6752;DHT22;3413;47.680;9.166;2023-08-31T22:23:39;21.40;82.10
6752;DHT22;3413;47.680;9.166;2023-08-31T22:28:41;21.40;82.20
6752;DHT22;3413;47.680;9.166;2023-08-31T22:33:43;21.40;82.30
6752;DHT22;3413;47.680;9.166;2023-08-31T22:38:46;21.40;82.40
6752;DHT22;3413;47.680;9.166;2023-08-31T22:43:50;21.40;83.10
6752;DHT22;3413;47.680;9.166;2023-08-31T22:48:52;21.40;82.50
6752;DHT22;3413;47.680;9.166;2023-08-31T22:53:55;21.10;82.20
6752;DHT22;3413;47.680;9.166;2023-08-31T22:58:56;20.80;82.20
6752;DHT22;3413;47.680;9.166;2023-08-31T23:03:59;20.70;82.00
6752;DHT22;3413;47.680;9.166;2023-08-31T23:09:01;20.70;81.90
6752;DHT22;3413;47.680;9.166;2023-08-31T23:14:04;20.70;82.10
6752;DHT22;3413;47.680;9.166;2023-08-31T23:19:06;20.70;81.70
6752;DHT22;3413;47.680;9.166;2023-08-31T23:24:08;20.70;81.90
6752;DHT22;3413;47.680;9.166;2023-08-31T23:29:10;20.80;81.80
6752;DHT22;3413;47.680;9.166;2023-08-31T23:34:13;20.90;81.90
6752;DHT22;3413;47.680;9.166;2023-08-31T23:39:15;21.00;82.00
6752;DHT22;3413;47.680;9.166;2023-08-31T23:44:16;21.00;82.00
6752;DHT22;3413;47.680;9.166;2023-08-31T23:49:18;21.10;82.10
6752;DHT22;3413;47.680;9.166;2023-08-31T23:54:20;21.10;82.10
6752;DHT22;3413;47.680;9.166;2023-08-31T23:59:22;21.10;82.10
